Terminal Aerodrome Forecast
Issued by NWS

Home | Current Version | Previous Version | Graphics & Text | Print | Product List | Glossary On
Versions: 1 2 3 4 5 6 7 8 9 10 11
000
FTUS43 KICT 231727
TAFRSL
TAF
KRSL 231727Z 2318/2418 33024G34KT 5SM -SN SCT009 OVC015
      TEMPO 2319/2323 2SM -SN OVC009
     FM240100 34020G28KT P6SM OVC020=

USA.gov is the U.S. government's official web portal to all federal, state and local government web resources and services.